sensor_id;sensor_type;location;lat;lon;timestamp;P1;durP1;ratioP1;P2;durP2;ratioP2
74503;SDS011;62988;55.776;37.544;2024-02-21T00:01:32;8.13;;;2.67;;
74503;SDS011;62988;55.776;37.544;2024-02-21T00:03:57;6.70;;;3.30;;
74503;SDS011;62988;55.776;37.544;2024-02-21T00:06:22;13.10;;;6.30;;
74503;SDS011;62988;55.776;37.544;2024-02-21T00:08:48;37.97;;;34.08;;
74503;SDS011;62988;55.776;37.544;2024-02-21T00:11:13;7.10;;;3.23;;
74503;SDS011;62988;55.776;37.544;2024-02-21T00:13:38;15.30;;;4.10;;
74503;SDS011;62988;55.776;37.544;2024-02-21T00:16:04;9.33;;;4.23;;
74503;SDS011;62988;55.776;37.544;2024-02-21T00:18:29;11.57;;;4.87;;
74503;SDS011;62988;55.776;37.544;2024-02-21T00:20:55;131.07;;;98.83;;
74503;SDS011;62988;55.776;37.544;2024-02-21T00:23:20;160.10;;;143.75;;
74503;SDS011;62988;55.776;37.544;2024-02-21T00:25:46;211.10;;;189.97;;
74503;SDS011;62988;55.776;37.544;2024-02-21T00:28:11;28.00;;;21.60;;
74503;SDS011;62988;55.776;37.544;2024-02-21T00:30:36;140.80;;;126.80;;
74503;SDS011;62988;55.776;37.544;2024-02-21T00:33:03;252.23;;;228.50;;
74503;SDS011;62988;55.776;37.544;2024-02-21T00:35:28;347.77;;;313.45;;
74503;SDS011;62988;55.776;37.544;2024-02-21T00:37:53;165.43;;;148.60;;
74503;SDS011;62988;55.776;37.544;2024-02-21T00:40:19;13.27;;;6.00;;
74503;SDS011;62988;55.776;37.544;2024-02-21T00:42:48;303.05;;;273.95;;
74503;SDS011;62988;55.776;37.544;2024-02-21T00:45:13;221.38;;;198.77;;
74503;SDS011;62988;55.776;37.544;2024-02-21T00:47:39;212.57;;;190.73;;
74503;SDS011;62988;55.776;37.544;2024-02-21T00:50:05;262.08;;;236.07;;
74503;SDS011;62988;55.776;37.544;2024-02-21T00:52:32;239.85;;;215.70;;
74503;SDS011;62988;55.776;37.544;2024-02-21T00:54:57;284.87;;;256.27;;
74503;SDS011;62988;55.776;37.544;2024-02-21T00:57:22;300.10;;;270.77;;
74503;SDS011;62988;55.776;37.544;2024-02-21T00:59:48;256.90;;;230.50;;
74503;SDS011;62988;55.776;37.544;2024-02-21T01:02:13;338.57;;;304.77;;
74503;SDS011;62988;55.776;37.544;2024-02-21T01:04:39;283.73;;;255.23;;
74503;SDS011;62988;55.776;37.544;2024-02-21T01:07:04;149.20;;;121.38;;
74503;SDS011;62988;55.776;37.544;2024-02-21T01:09:30;37.97;;;19.63;;
74503;SDS011;62988;55.776;37.544;2024-02-21T01:11:55;234.47;;;211.50;;
74503;SDS011;62988;55.776;37.544;2024-02-21T01:14:20;63.90;;;58.13;;
74503;SDS011;62988;55.776;37.544;2024-02-21T01:16:46;10.93;;;5.00;;
74503;SDS011;62988;55.776;37.544;2024-02-21T01:19:11;338.23;;;305.10;;
74503;SDS011;62988;55.776;37.544;2024-02-21T01:21:36;336.60;;;303.47;;
74503;SDS011;62988;55.776;37.544;2024-02-21T01:24:02;229.43;;;208.33;;
74503;SDS011;62988;55.776;37.544;2024-02-21T01:26:27;115.10;;;103.82;;
74503;SDS011;62988;55.776;37.544;2024-02-21T01:28:52;296.17;;;267.50;;
74503;SDS011;62988;55.776;37.544;2024-02-21T01:31:18;162.80;;;146.13;;
74503;SDS011;62988;55.776;37.544;2024-02-21T01:33:43;194.37;;;174.70;;
74503;SDS011;62988;55.776;37.544;2024-02-21T01:36:08;169.00;;;152.23;;
74503;SDS011;62988;55.776;37.544;2024-02-21T01:38:34;331.53;;;299.97;;
74503;SDS011;62988;55.776;37.544;2024-02-21T01:40:59;339.60;;;307.02;;
74503;SDS011;62988;55.776;37.544;2024-02-21T01:43:25;202.93;;;182.50;;
74503;SDS011;62988;55.776;37.544;2024-02-21T01:45:52;219.53;;;197.83;;
74503;SDS011;62988;55.776;37.544;2024-02-21T01:48:19;276.88;;;249.02;;
74503;SDS011;62988;55.776;37.544;2024-02-21T01:50:45;290.25;;;261.13;;
74503;SDS011;62988;55.776;37.544;2024-02-21T01:53:11;280.27;;;251.55;;
74503;SDS011;62988;55.776;37.544;2024-02-21T01:55:43;285.92;;;257.05;;
74503;SDS011;62988;55.776;37.544;2024-02-21T01:58:08;293.60;;;264.30;;
74503;SDS011;62988;55.776;37.544;2024-02-21T02:00:36;249.83;;;225.53;;
74503;SDS011;62988;55.776;37.544;2024-02-21T02:03:03;214.43;;;192.77;;
74503;SDS011;62988;55.776;37.544;2024-02-21T02:05:29;306.88;;;276.52;;
74503;SDS011;62988;55.776;37.544;2024-02-21T02:07:54;360.75;;;326.23;;
74503;SDS011;62988;55.776;37.544;2024-02-21T02:10:20;26.23;;;23.65;;
74503;SDS011;62988;55.776;37.544;2024-02-21T02:12:45;122.27;;;110.97;;
74503;SDS011;62988;55.776;37.544;2024-02-21T02:15:10;13.17;;;8.60;;
74503;SDS011;62988;55.776;37.544;2024-02-21T02:17:36;11.73;;;6.67;;
74503;SDS011;62988;55.776;37.544;2024-02-21T02:20:01;37.50;;;33.80;;
74503;SDS011;62988;55.776;37.544;2024-02-21T02:22:37;15.73;;;5.57;;
74503;SDS011;62988;55.776;37.544;2024-02-21T02:25:04;17.50;;;13.20;;
74503;SDS011;62988;55.776;37.544;2024-02-21T02:27:29;14.80;;;8.30;;
74503;SDS011;62988;55.776;37.544;2024-02-21T02:29:55;10.03;;;5.70;;
74503;SDS011;62988;55.776;37.544;2024-02-21T02:32:20;9.57;;;4.22;;
74503;SDS011;62988;55.776;37.544;2024-02-21T02:34:45;12.73;;;5.17;;
74503;SDS011;62988;55.776;37.544;2024-02-21T02:37:11;16.17;;;10.83;;
74503;SDS011;62988;55.776;37.544;2024-02-21T02:39:36;8.53;;;3.63;;
74503;SDS011;62988;55.776;37.544;2024-02-21T02:42:02;8.25;;;3.95;;
74503;SDS011;62988;55.776;37.544;2024-02-21T02:44:27;11.82;;;6.25;;
74503;SDS011;62988;55.776;37.544;2024-02-21T02:46:52;8.10;;;4.00;;
74503;SDS011;62988;55.776;37.544;2024-02-21T02:49:18;7.15;;;3.83;;
74503;SDS011;62988;55.776;37.544;2024-02-21T02:51:43;6.80;;;3.70;;
74503;SDS011;62988;55.776;37.544;2024-02-21T02:54:08;24.47;;;20.33;;
74503;SDS011;62988;55.776;37.544;2024-02-21T02:56:34;4.93;;;2.97;;
74503;SDS011;62988;55.776;37.544;2024-02-21T02:58:59;12.97;;;5.17;;
74503;SDS011;62988;55.776;37.544;2024-02-21T03:01:24;11.03;;;5.00;;
74503;SDS011;62988;55.776;37.544;2024-02-21T03:03:50;9.30;;;4.63;;
74503;SDS011;62988;55.776;37.544;2024-02-21T03:06:15;8.60;;;3.17;;
74503;SDS011;62988;55.776;37.544;2024-02-21T03:08:40;10.00;;;4.67;;
74503;SDS011;62988;55.776;37.544;2024-02-21T03:11:06;11.17;;;4.53;;
74503;SDS011;62988;55.776;37.544;2024-02-21T03:13:31;9.05;;;4.47;;
74503;SDS011;62988;55.776;37.544;2024-02-21T03:15:57;6.70;;;3.27;;
74503;SDS011;62988;55.776;37.544;2024-02-21T03:18:22;9.87;;;4.43;;
74503;SDS011;62988;55.776;37.544;2024-02-21T03:20:47;12.03;;;5.63;;
74503;SDS011;62988;55.776;37.544;2024-02-21T03:23:13;12.10;;;5.30;;
74503;SDS011;62988;55.776;37.544;2024-02-21T03:25:38;8.73;;;4.33;;
74503;SDS011;62988;55.776;37.544;2024-02-21T03:28:04;13.07;;;5.03;;
74503;SDS011;62988;55.776;37.544;2024-02-21T03:30:29;9.87;;;3.33;;
74503;SDS011;62988;55.776;37.544;2024-02-21T03:32:54;8.83;;;4.83;;
74503;SDS011;62988;55.776;37.544;2024-02-21T03:35:20;7.53;;;4.57;;
74503;SDS011;62988;55.776;37.544;2024-02-21T03:37:45;13.20;;;6.07;;
74503;SDS011;62988;55.776;37.544;2024-02-21T03:40:11;13.20;;;6.13;;
74503;SDS011;62988;55.776;37.544;2024-02-21T03:42:37;9.52;;;5.32;;
74503;SDS011;62988;55.776;37.544;2024-02-21T03:45:02;10.32;;;4.63;;
74503;SDS011;62988;55.776;37.544;2024-02-21T03:47:28;12.57;;;5.80;;
74503;SDS011;62988;55.776;37.544;2024-02-21T03:49:54;9.13;;;3.30;;
74503;SDS011;62988;55.776;37.544;2024-02-21T03:52:19;12.63;;;5.60;;
74503;SDS011;62988;55.776;37.544;2024-02-21T03:54:44;10.40;;;3.60;;
74503;SDS011;62988;55.776;37.544;2024-02-21T03:57:10;13.50;;;5.17;;
74503;SDS011;62988;55.776;37.544;2024-02-21T03:59:35;11.40;;;5.17;;
74503;SDS011;62988;55.776;37.544;2024-02-21T04:02:00;10.27;;;4.93;;
74503;SDS011;62988;55.776;37.544;2024-02-21T04:04:26;14.88;;;5.90;;
74503;SDS011;62988;55.776;37.544;2024-02-21T04:06:51;11.30;;;5.83;;
74503;SDS011;62988;55.776;37.544;2024-02-21T04:09:17;11.82;;;5.72;;
74503;SDS011;62988;55.776;37.544;2024-02-21T04:11:42;13.45;;;4.60;;
74503;SDS011;62988;55.776;37.544;2024-02-21T04:14:07;11.77;;;5.90;;
74503;SDS011;62988;55.776;37.544;2024-02-21T04:16:33;11.23;;;4.97;;
74503;SDS011;62988;55.776;37.544;2024-02-21T04:18:59;10.65;;;4.07;;
74503;SDS011;62988;55.776;37.544;2024-02-21T04:21:24;12.57;;;4.97;;
74503;SDS011;62988;55.776;37.544;2024-02-21T04:23:50;12.18;;;6.13;;
74503;SDS011;62988;55.776;37.544;2024-02-21T04:26:15;17.33;;;7.93;;
74503;SDS011;62988;55.776;37.544;2024-02-21T04:28:41;20.83;;;7.80;;
74503;SDS011;62988;55.776;37.544;2024-02-21T04:31:06;11.17;;;5.67;;
74503;SDS011;62988;55.776;37.544;2024-02-21T04:33:31;15.33;;;6.77;;
74503;SDS011;62988;55.776;37.544;2024-02-21T04:35:57;8.35;;;4.22;;
74503;SDS011;62988;55.776;37.544;2024-02-21T04:38:23;7.47;;;4.40;;
74503;SDS011;62988;55.776;37.544;2024-02-21T04:40:49;11.10;;;5.00;;
74503;SDS011;62988;55.776;37.544;2024-02-21T04:43:14;12.87;;;6.60;;
74503;SDS011;62988;55.776;37.544;2024-02-21T04:45:39;11.13;;;5.10;;
74503;SDS011;62988;55.776;37.544;2024-02-21T04:48:05;12.03;;;7.10;;
74503;SDS011;62988;55.776;37.544;2024-02-21T04:50:30;10.77;;;4.73;;
74503;SDS011;62988;55.776;37.544;2024-02-21T04:52:55;13.73;;;5.50;;
74503;SDS011;62988;55.776;37.544;2024-02-21T04:55:20;15.60;;;6.53;;
74503;SDS011;62988;55.776;37.544;2024-02-21T04:57:46;6.40;;;3.37;;
74503;SDS011;62988;55.776;37.544;2024-02-21T05:00:11;13.87;;;5.20;;
74503;SDS011;62988;55.776;37.544;2024-02-21T05:02:37;11.70;;;5.50;;
74503;SDS011;62988;55.776;37.544;2024-02-21T05:05:02;11.07;;;5.43;;
74503;SDS011;62988;55.776;37.544;2024-02-21T05:07:27;8.52;;;3.90;;
74503;SDS011;62988;55.776;37.544;2024-02-21T05:09:53;10.05;;;4.32;;
74503;SDS011;62988;55.776;37.544;2024-02-21T05:12:18;11.57;;;5.40;;
74503;SDS011;62988;55.776;37.544;2024-02-21T05:14:43;15.03;;;4.87;;
74503;SDS011;62988;55.776;37.544;2024-02-21T05:17:09;6.63;;;3.57;;
74503;SDS011;62988;55.776;37.544;2024-02-21T05:19:34;11.37;;;5.53;;
74503;SDS011;62988;55.776;37.544;2024-02-21T05:21:59;12.50;;;6.53;;
74503;SDS011;62988;55.776;37.544;2024-02-21T05:24:25;9.47;;;5.00;;
74503;SDS011;62988;55.776;37.544;2024-02-21T05:26:50;13.35;;;6.47;;
74503;SDS011;62988;55.776;37.544;2024-02-21T05:29:16;12.18;;;4.82;;
74503;SDS011;62988;55.776;37.544;2024-02-21T05:34:15;10.65;;;4.22;;
74503;SDS011;62988;55.776;37.544;2024-02-21T05:36:41;14.77;;;5.87;;
74503;SDS011;62988;55.776;37.544;2024-02-21T05:39:06;11.23;;;5.27;;
74503;SDS011;62988;55.776;37.544;2024-02-21T05:41:32;11.98;;;6.05;;
74503;SDS011;62988;55.776;37.544;2024-02-21T05:43:57;9.77;;;5.43;;
74503;SDS011;62988;55.776;37.544;2024-02-21T05:46:22;24.03;;;11.10;;
74503;SDS011;62988;55.776;37.544;2024-02-21T05:48:48;20.47;;;8.87;;
74503;SDS011;62988;55.776;37.544;2024-02-21T05:51:13;10.23;;;4.50;;
74503;SDS011;62988;55.776;37.544;2024-02-21T05:53:38;14.40;;;5.77;;
74503;SDS011;62988;55.776;37.544;2024-02-21T05:56:09;11.48;;;6.05;;
74503;SDS011;62988;55.776;37.544;2024-02-21T05:58:35;14.25;;;6.32;;
74503;SDS011;62988;55.776;37.544;2024-02-21T06:01:00;15.30;;;6.13;;
74503;SDS011;62988;55.776;37.544;2024-02-21T06:03:28;9.10;;;4.03;;
74503;SDS011;62988;55.776;37.544;2024-02-21T06:05:53;8.63;;;4.50;;
74503;SDS011;62988;55.776;37.544;2024-02-21T06:08:18;10.20;;;5.27;;
74503;SDS011;62988;55.776;37.544;2024-02-21T06:10:44;10.50;;;5.40;;
74503;SDS011;62988;55.776;37.544;2024-02-21T06:13:09;18.10;;;9.23;;
74503;SDS011;62988;55.776;37.544;2024-02-21T06:15:34;8.85;;;4.97;;
74503;SDS011;62988;55.776;37.544;2024-02-21T06:18:00;13.60;;;5.83;;
74503;SDS011;62988;55.776;37.544;2024-02-21T06:20:25;11.37;;;5.53;;
74503;SDS011;62988;55.776;37.544;2024-02-21T06:22:50;16.30;;;6.93;;
74503;SDS011;62988;55.776;37.544;2024-02-21T06:25:16;13.27;;;5.80;;
74503;SDS011;62988;55.776;37.544;2024-02-21T06:27:41;13.30;;;6.20;;
74503;SDS011;62988;55.776;37.544;2024-02-21T06:30:07;19.40;;;8.13;;
74503;SDS011;62988;55.776;37.544;2024-02-21T06:32:32;13.40;;;6.07;;
74503;SDS011;62988;55.776;37.544;2024-02-21T06:34:58;9.80;;;5.73;;
74503;SDS011;62988;55.776;37.544;2024-02-21T06:37:23;12.65;;;6.43;;
74503;SDS011;62988;55.776;37.544;2024-02-21T06:39:49;13.52;;;6.05;;
74503;SDS011;62988;55.776;37.544;2024-02-21T06:42:15;13.43;;;7.20;;
74503;SDS011;62988;55.776;37.544;2024-02-21T06:44:40;10.57;;;6.43;;
74503;SDS011;62988;55.776;37.544;2024-02-21T06:47:05;13.97;;;7.47;;
74503;SDS011;62988;55.776;37.544;2024-02-21T06:49:31;13.88;;;6.93;;
74503;SDS011;62988;55.776;37.544;2024-02-21T06:51:56;13.10;;;6.47;;
74503;SDS011;62988;55.776;37.544;2024-02-21T06:54:21;10.10;;;4.63;;
74503;SDS011;62988;55.776;37.544;2024-02-21T06:56:47;18.13;;;6.03;;
74503;SDS011;62988;55.776;37.544;2024-02-21T06:59:12;16.27;;;7.30;;
74503;SDS011;62988;55.776;37.544;2024-02-21T07:01:44;16.77;;;5.82;;
74503;SDS011;62988;55.776;37.544;2024-02-21T07:04:09;14.10;;;5.88;;
74503;SDS011;62988;55.776;37.544;2024-02-21T07:06:34;17.53;;;7.27;;
74503;SDS011;62988;55.776;37.544;2024-02-21T07:09:00;15.93;;;7.07;;
74503;SDS011;62988;55.776;37.544;2024-02-21T07:11:25;17.43;;;8.57;;
74503;SDS011;62988;55.776;37.544;2024-02-21T07:13:51;14.53;;;6.00;;
74503;SDS011;62988;55.776;37.544;2024-02-21T07:16:17;17.17;;;7.30;;
74503;SDS011;62988;55.776;37.544;2024-02-21T07:18:42;12.35;;;6.53;;
74503;SDS011;62988;55.776;37.544;2024-02-21T07:21:07;12.33;;;5.60;;
74503;SDS011;62988;55.776;37.544;2024-02-21T07:23:33;14.00;;;6.97;;
74503;SDS011;62988;55.776;37.544;2024-02-21T07:25:58;16.00;;;6.93;;
74503;SDS011;62988;55.776;37.544;2024-02-21T07:28:23;6.90;;;4.23;;
74503;SDS011;62988;55.776;37.544;2024-02-21T07:30:49;14.90;;;5.20;;
74503;SDS011;62988;55.776;37.544;2024-02-21T07:33:14;11.23;;;6.10;;
74503;SDS011;62988;55.776;37.544;2024-02-21T07:35:39;12.53;;;5.90;;
74503;SDS011;62988;55.776;37.544;2024-02-21T07:38:07;14.90;;;7.38;;
74503;SDS011;62988;55.776;37.544;2024-02-21T07:40:33;12.48;;;5.40;;
74503;SDS011;62988;55.776;37.544;2024-02-21T07:42:58;12.13;;;6.07;;
74503;SDS011;62988;55.776;37.544;2024-02-21T07:45:24;14.10;;;6.47;;
74503;SDS011;62988;55.776;37.544;2024-02-21T07:47:49;12.23;;;6.15;;
74503;SDS011;62988;55.776;37.544;2024-02-21T07:50:15;14.50;;;6.90;;
74503;SDS011;62988;55.776;37.544;2024-02-21T07:52:40;20.38;;;6.93;;
74503;SDS011;62988;55.776;37.544;2024-02-21T07:55:06;16.40;;;7.77;;
74503;SDS011;62988;55.776;37.544;2024-02-21T07:57:31;12.65;;;6.38;;
74503;SDS011;62988;55.776;37.544;2024-02-21T07:59:56;17.70;;;6.00;;
74503;SDS011;62988;55.776;37.544;2024-02-21T08:02:22;22.00;;;8.53;;
74503;SDS011;62988;55.776;37.544;2024-02-21T08:04:47;14.57;;;6.67;;
74503;SDS011;62988;55.776;37.544;2024-02-21T08:07:12;15.73;;;8.23;;
74503;SDS011;62988;55.776;37.544;2024-02-21T08:09:39;13.80;;;6.83;;
74503;SDS011;62988;55.776;37.544;2024-02-21T08:12:04;11.27;;;5.60;;
74503;SDS011;62988;55.776;37.544;2024-02-21T08:14:30;9.48;;;4.82;;
74503;SDS011;62988;55.776;37.544;2024-02-21T08:16:55;13.13;;;6.63;;
74503;SDS011;62988;55.776;37.544;2024-02-21T08:19:21;11.25;;;5.68;;
74503;SDS011;62988;55.776;37.544;2024-02-21T08:21:47;19.85;;;7.78;;
74503;SDS011;62988;55.776;37.544;2024-02-21T08:24:13;11.80;;;5.57;;
74503;SDS011;62988;55.776;37.544;2024-02-21T08:26:40;12.65;;;6.13;;
74503;SDS011;62988;55.776;37.544;2024-02-21T08:29:05;14.73;;;5.88;;
74503;SDS011;62988;55.776;37.544;2024-02-21T08:31:31;18.80;;;6.50;;
74503;SDS011;62988;55.776;37.544;2024-02-21T08:33:57;12.23;;;5.20;;
74503;SDS011;62988;55.776;37.544;2024-02-21T08:36:28;12.30;;;7.28;;
74503;SDS011;62988;55.776;37.544;2024-02-21T08:38:53;14.52;;;6.82;;
74503;SDS011;62988;55.776;37.544;2024-02-21T08:41:19;11.47;;;6.73;;
74503;SDS011;62988;55.776;37.544;2024-02-21T08:43:44;11.10;;;6.20;;
74503;SDS011;62988;55.776;37.544;2024-02-21T08:46:09;12.73;;;6.90;;
74503;SDS011;62988;55.776;37.544;2024-02-21T08:48:34;11.03;;;5.50;;
74503;SDS011;62988;55.776;37.544;2024-02-21T08:51:00;15.30;;;7.65;;
74503;SDS011;62988;55.776;37.544;2024-02-21T08:53:25;14.00;;;6.72;;
74503;SDS011;62988;55.776;37.544;2024-02-21T08:55:51;14.35;;;7.68;;
74503;SDS011;62988;55.776;37.544;2024-02-21T08:58:16;12.23;;;6.97;;
74503;SDS011;62988;55.776;37.544;2024-02-21T09:00:41;17.63;;;7.03;;
74503;SDS011;62988;55.776;37.544;2024-02-21T09:03:07;13.90;;;7.10;;
74503;SDS011;62988;55.776;37.544;2024-02-21T09:05:32;17.80;;;7.67;;
74503;SDS011;62988;55.776;37.544;2024-02-21T09:08:00;9.23;;;4.78;;
74503;SDS011;62988;55.776;37.544;2024-02-21T09:10:25;19.70;;;8.30;;
74503;SDS011;62988;55.776;37.544;2024-02-21T09:12:51;12.50;;;6.35;;
74503;SDS011;62988;55.776;37.544;2024-02-21T09:15:16;17.03;;;7.30;;
74503;SDS011;62988;55.776;37.544;2024-02-21T09:17:41;16.97;;;7.43;;
74503;SDS011;62988;55.776;37.544;2024-02-21T09:20:07;8.70;;;4.30;;
74503;SDS011;62988;55.776;37.544;2024-02-21T09:22:32;18.00;;;7.22;;
74503;SDS011;62988;55.776;37.544;2024-02-21T09:24:59;18.38;;;7.78;;
74503;SDS011;62988;55.776;37.544;2024-02-21T09:27:25;14.50;;;7.45;;
74503;SDS011;62988;55.776;37.544;2024-02-21T09:29:50;14.38;;;6.82;;
74503;SDS011;62988;55.776;37.544;2024-02-21T09:32:16;16.13;;;7.23;;
74503;SDS011;62988;55.776;37.544;2024-02-21T09:34:41;14.85;;;6.70;;
74503;SDS011;62988;55.776;37.544;2024-02-21T09:37:06;13.10;;;6.60;;
74503;SDS011;62988;55.776;37.544;2024-02-21T09:39:32;12.43;;;6.40;;
74503;SDS011;62988;55.776;37.544;2024-02-21T09:42:03;12.50;;;6.43;;
74503;SDS011;62988;55.776;37.544;2024-02-21T09:44:33;11.00;;;6.00;;
74503;SDS011;62988;55.776;37.544;2024-02-21T09:47:09;12.60;;;6.63;;
74503;SDS011;62988;55.776;37.544;2024-02-21T09:49:35;9.27;;;4.75;;
74503;SDS011;62988;55.776;37.544;2024-02-21T09:52:06;16.13;;;6.65;;
74503;SDS011;62988;55.776;37.544;2024-02-21T09:54:32;9.65;;;4.22;;
74503;SDS011;62988;55.776;37.544;2024-02-21T09:56:59;14.93;;;7.13;;
74503;SDS011;62988;55.776;37.544;2024-02-21T09:59:24;12.15;;;6.10;;
74503;SDS011;62988;55.776;37.544;2024-02-21T10:01:50;16.67;;;7.10;;
74503;SDS011;62988;55.776;37.544;2024-02-21T10:04:16;10.68;;;5.03;;
74503;SDS011;62988;55.776;37.544;2024-02-21T10:06:41;10.48;;;4.47;;
74503;SDS011;62988;55.776;37.544;2024-02-21T10:09:07;14.17;;;5.77;;
74503;SDS011;62988;55.776;37.544;2024-02-21T10:11:32;14.35;;;5.75;;
74503;SDS011;62988;55.776;37.544;2024-02-21T10:14:07;13.32;;;6.43;;
74503;SDS011;62988;55.776;37.544;2024-02-21T10:16:32;11.40;;;5.63;;
74503;SDS011;62988;55.776;37.544;2024-02-21T10:18:58;10.82;;;5.57;;
74503;SDS011;62988;55.776;37.544;2024-02-21T10:21:24;10.60;;;5.15;;
74503;SDS011;62988;55.776;37.544;2024-02-21T10:23:49;14.00;;;5.50;;
74503;SDS011;62988;55.776;37.544;2024-02-21T10:26:16;13.55;;;6.63;;
74503;SDS011;62988;55.776;37.544;2024-02-21T10:28:42;14.05;;;5.88;;
74503;SDS011;62988;55.776;37.544;2024-02-21T10:31:09;14.23;;;5.55;;
74503;SDS011;62988;55.776;37.544;2024-02-21T10:33:37;14.80;;;7.00;;
74503;SDS011;62988;55.776;37.544;2024-02-21T10:36:09;10.52;;;5.70;;
74503;SDS011;62988;55.776;37.544;2024-02-21T10:38:36;17.70;;;6.03;;
74503;SDS011;62988;55.776;37.544;2024-02-21T10:41:02;11.43;;;5.47;;
74503;SDS011;62988;55.776;37.544;2024-02-21T10:43:28;13.82;;;6.63;;
74503;SDS011;62988;55.776;37.544;2024-02-21T10:45:55;10.23;;;5.35;;
74503;SDS011;62988;55.776;37.544;2024-02-21T10:48:27;9.70;;;4.65;;
74503;SDS011;62988;55.776;37.544;2024-02-21T10:58:36;11.15;;;4.65;;
74503;SDS011;62988;55.776;37.544;2024-02-21T11:01:02;10.80;;;5.30;;
74503;SDS011;62988;55.776;37.544;2024-02-21T11:03:28;13.70;;;5.45;;
74503;SDS011;62988;55.776;37.544;2024-02-21T11:05:53;10.83;;;4.83;;
74503;SDS011;62988;55.776;37.544;2024-02-21T11:08:19;9.52;;;4.57;;
74503;SDS011;62988;55.776;37.544;2024-02-21T11:10:45;9.55;;;4.90;;
74503;SDS011;62988;55.776;37.544;2024-02-21T11:13:11;12.07;;;5.72;;
74503;SDS011;62988;55.776;37.544;2024-02-21T11:15:36;12.35;;;5.18;;
74503;SDS011;62988;55.776;37.544;2024-02-21T11:18:02;12.83;;;5.63;;
74503;SDS011;62988;55.776;37.544;2024-02-21T11:20:34;10.13;;;4.32;;
74503;SDS011;62988;55.776;37.544;2024-02-21T11:22:59;16.33;;;7.15;;
74503;SDS011;62988;55.776;37.544;2024-02-21T11:25:26;11.32;;;4.35;;
74503;SDS011;62988;55.776;37.544;2024-02-21T11:27:58;11.65;;;5.57;;
74503;SDS011;62988;55.776;37.544;2024-02-21T11:30:27;9.38;;;4.75;;
74503;SDS011;62988;55.776;37.544;2024-02-21T11:32:59;8.40;;;4.30;;
74503;SDS011;62988;55.776;37.544;2024-02-21T11:35:24;13.10;;;5.70;;
74503;SDS011;62988;55.776;37.544;2024-02-21T11:37:50;9.90;;;4.70;;
74503;SDS011;62988;55.776;37.544;2024-02-21T11:40:15;9.20;;;4.23;;
74503;SDS011;62988;55.776;37.544;2024-02-21T11:42:40;9.53;;;4.50;;
74503;SDS011;62988;55.776;37.544;2024-02-21T11:45:06;12.63;;;5.83;;
74503;SDS011;62988;55.776;37.544;2024-02-21T11:47:31;9.68;;;4.35;;
74503;SDS011;62988;55.776;37.544;2024-02-21T11:49:57;13.53;;;5.40;;
74503;SDS011;62988;55.776;37.544;2024-02-21T11:52:22;10.67;;;4.63;;
74503;SDS011;62988;55.776;37.544;2024-02-21T11:54:50;9.98;;;5.05;;
74503;SDS011;62988;55.776;37.544;2024-02-21T11:57:15;10.23;;;5.15;;
74503;SDS011;62988;55.776;37.544;2024-02-21T11:59:42;14.15;;;5.30;;
74503;SDS011;62988;55.776;37.544;2024-02-21T12:02:07;13.73;;;6.93;;
74503;SDS011;62988;55.776;37.544;2024-02-21T12:04:32;12.53;;;5.63;;
74503;SDS011;62988;55.776;37.544;2024-02-21T12:06:58;9.43;;;4.07;;
74503;SDS011;62988;55.776;37.544;2024-02-21T12:09:24;11.35;;;5.10;;
74503;SDS011;62988;55.776;37.544;2024-02-21T12:12:05;10.52;;;4.72;;
74503;SDS011;62988;55.776;37.544;2024-02-21T12:14:32;11.70;;;5.00;;
74503;SDS011;62988;55.776;37.544;2024-02-21T12:16:58;12.40;;;4.18;;
74503;SDS011;62988;55.776;37.544;2024-02-21T12:19:23;11.85;;;4.82;;
74503;SDS011;62988;55.776;37.544;2024-02-21T12:21:49;51.78;;;35.35;;
74503;SDS011;62988;55.776;37.544;2024-02-21T12:24:23;8.98;;;3.95;;
74503;SDS011;62988;55.776;37.544;2024-02-21T12:26:51;8.15;;;4.22;;
74503;SDS011;62988;55.776;37.544;2024-02-21T12:29:17;12.52;;;5.93;;
74503;SDS011;62988;55.776;37.544;2024-02-21T12:31:42;7.60;;;3.78;;
74503;SDS011;62988;55.776;37.544;2024-02-21T12:34:08;5.88;;;2.85;;
74503;SDS011;62988;55.776;37.544;2024-02-21T12:36:36;9.60;;;4.68;;
74503;SDS011;62988;55.776;37.544;2024-02-21T12:39:01;9.88;;;4.90;;
74503;SDS011;62988;55.776;37.544;2024-02-21T12:41:28;9.00;;;4.93;;
74503;SDS011;62988;55.776;37.544;2024-02-21T12:43:54;11.43;;;5.15;;
74503;SDS011;62988;55.776;37.544;2024-02-21T12:46:21;10.27;;;5.60;;
74503;SDS011;62988;55.776;37.544;2024-02-21T12:48:46;8.32;;;3.30;;
74503;SDS011;62988;55.776;37.544;2024-02-21T12:51:12;9.67;;;4.40;;
74503;SDS011;62988;55.776;37.544;2024-02-21T12:53:37;9.40;;;4.20;;
74503;SDS011;62988;55.776;37.544;2024-02-21T12:56:02;10.63;;;3.43;;
74503;SDS011;62988;55.776;37.544;2024-02-21T12:58:30;8.27;;;4.03;;
74503;SDS011;62988;55.776;37.544;2024-02-21T13:00:59;15.68;;;4.57;;
74503;SDS011;62988;55.776;37.544;2024-02-21T13:03:25;10.25;;;4.47;;
74503;SDS011;62988;55.776;37.544;2024-02-21T13:05:50;12.35;;;5.15;;
74503;SDS011;62988;55.776;37.544;2024-02-21T13:08:16;9.77;;;4.43;;
74503;SDS011;62988;55.776;37.544;2024-02-21T13:10:41;11.37;;;5.33;;
74503;SDS011;62988;55.776;37.544;2024-02-21T13:13:07;9.20;;;4.77;;
74503;SDS011;62988;55.776;37.544;2024-02-21T13:15:32;8.30;;;3.70;;
74503;SDS011;62988;55.776;37.544;2024-02-21T13:17:58;6.65;;;3.50;;
74503;SDS011;62988;55.776;37.544;2024-02-21T13:20:24;7.85;;;3.50;;
74503;SDS011;62988;55.776;37.544;2024-02-21T13:22:50;10.43;;;5.15;;
74503;SDS011;62988;55.776;37.544;2024-02-21T13:25:15;13.57;;;5.93;;
74503;SDS011;62988;55.776;37.544;2024-02-21T13:27:43;15.48;;;10.80;;
74503;SDS011;62988;55.776;37.544;2024-02-21T13:30:09;14.48;;;8.20;;
74503;SDS011;62988;55.776;37.544;2024-02-21T13:32:35;8.35;;;4.05;;
74503;SDS011;62988;55.776;37.544;2024-02-21T13:35:00;20.92;;;13.13;;
74503;SDS011;62988;55.776;37.544;2024-02-21T13:37:28;9.73;;;4.75;;
74503;SDS011;62988;55.776;37.544;2024-02-21T13:39:54;133.10;;;96.50;;
74503;SDS011;62988;55.776;37.544;2024-02-21T13:42:19;40.03;;;27.17;;
74503;SDS011;62988;55.776;37.544;2024-02-21T13:44:45;14.07;;;4.75;;
74503;SDS011;62988;55.776;37.544;2024-02-21T13:47:11;8.60;;;4.45;;
74503;SDS011;62988;55.776;37.544;2024-02-21T13:49:38;12.52;;;4.90;;
74503;SDS011;62988;55.776;37.544;2024-02-21T13:52:04;9.93;;;4.50;;
74503;SDS011;62988;55.776;37.544;2024-02-21T13:54:29;14.23;;;6.05;;
74503;SDS011;62988;55.776;37.544;2024-02-21T13:56:55;63.63;;;28.47;;
74503;SDS011;62988;55.776;37.544;2024-02-21T13:59:20;132.57;;;88.32;;
74503;SDS011;62988;55.776;37.544;2024-02-21T14:01:45;25.53;;;19.83;;
74503;SDS011;62988;55.776;37.544;2024-02-21T14:04:11;8.17;;;4.70;;
74503;SDS011;62988;55.776;37.544;2024-02-21T14:06:37;9.80;;;3.92;;
74503;SDS011;62988;55.776;37.544;2024-02-21T14:09:08;10.18;;;4.53;;
74503;SDS011;62988;55.776;37.544;2024-02-21T14:11:33;10.65;;;4.93;;
74503;SDS011;62988;55.776;37.544;2024-02-21T14:13:58;8.50;;;3.87;;
74503;SDS011;62988;55.776;37.544;2024-02-21T14:16:25;11.60;;;4.68;;
74503;SDS011;62988;55.776;37.544;2024-02-21T14:18:50;9.70;;;4.25;;
74503;SDS011;62988;55.776;37.544;2024-02-21T14:21:16;12.93;;;5.87;;